createdAt,value
2022-09-23T00:02:43.001Z,20.81
2022-09-23T00:07:46.109Z,20.82
2022-09-23T00:12:50.183Z,20.83
2022-09-23T00:17:54.150Z,20.56
2022-09-23T00:22:57.827Z,20.27
2022-09-23T00:28:03.254Z,20.08
2022-09-23T00:33:06.026Z,19.96
2022-09-23T00:38:08.999Z,19.85
2022-09-23T00:43:15.270Z,19.78
2022-09-23T00:48:21.567Z,19.72
2022-09-23T00:53:26.703Z,19.66
2022-09-23T00:58:34.872Z,19.60
2022-09-23T01:03:37.781Z,19.57
2022-09-23T01:08:41.462Z,19.55
2022-09-23T01:13:56.910Z,19.48
2022-09-23T01:19:11.838Z,19.44
2022-09-23T01:24:56.568Z,19.37
2022-09-23T01:30:26.243Z,19.35
2022-09-23T01:35:42.407Z,19.32
2022-09-23T01:40:52.098Z,19.27
2022-09-23T01:45:59.498Z,19.23
2022-09-23T01:51:08.313Z,19.19
2022-09-23T01:56:17.791Z,19.14
2022-09-23T02:01:25.709Z,19.13
2022-09-23T02:06:35.410Z,19.06
2022-09-23T02:11:39.414Z,19.04
2022-09-23T02:16:47.512Z,18.99
2022-09-23T02:21:57.699Z,18.98
2022-09-23T02:27:10.088Z,18.97
2022-09-23T02:32:18.970Z,18.94
2022-09-23T02:37:32.370Z,18.87
2022-09-23T02:42:48.118Z,18.82
2022-09-23T02:47:54.477Z,18.81
2022-09-23T02:52:59.422Z,18.79
2022-09-23T02:58:03.587Z,18.77
2022-09-23T03:03:24.152Z,18.74
2022-09-23T03:08:42.998Z,18.70
2022-09-23T03:13:58.471Z,18.67
2022-09-23T03:19:18.514Z,18.68
2022-09-23T03:24:25.026Z,18.62
2022-09-23T03:29:29.050Z,18.57
2022-09-23T03:34:36.083Z,18.57
2022-09-23T03:39:45.359Z,18.55
2022-09-23T03:44:50.360Z,18.53
2022-09-23T03:49:54.041Z,18.48
2022-09-23T03:54:58.198Z,18.44
2022-09-23T04:00:01.065Z,18.42
2022-09-23T04:05:04.124Z,18.41
2022-09-23T04:10:09.970Z,18.39
2022-09-23T04:15:13.066Z,18.37
2022-09-23T04:20:19.043Z,18.44
2022-09-23T04:25:23.266Z,18.37
2022-09-23T04:30:26.038Z,18.34
2022-09-23T04:35:29.082Z,18.32
2022-09-23T04:40:33.690Z,18.30
2022-09-23T04:45:36.823Z,18.30
2022-09-23T04:50:39.843Z,18.26
2022-09-23T04:55:43.938Z,18.23
2022-09-23T05:00:47.384Z,18.21
2022-09-23T05:05:50.162Z,18.18
2022-09-23T05:10:59.307Z,18.17
2022-09-23T05:16:03.670Z,18.13
2022-09-23T05:21:06.785Z,18.13
2022-09-23T05:26:12.636Z,18.12
2022-09-23T05:31:20.260Z,18.13
2022-09-23T05:36:24.293Z,18.10
2022-09-23T05:41:28.608Z,18.06
2022-09-23T05:46:32.063Z,18.06
2022-09-23T05:51:35.830Z,18.06
2022-09-23T05:56:40.020Z,18.03
2022-09-23T06:01:44.907Z,18.01
2022-09-23T06:06:47.736Z,18.00
2022-09-23T06:11:51.975Z,18.02
2022-09-23T06:16:54.703Z,18.01
2022-09-23T06:21:57.459Z,16.67
2022-09-23T06:27:02.530Z,14.95
2022-09-23T06:32:05.413Z,14.51
2022-09-23T06:37:18.149Z,14.29
2022-09-23T06:51:08.574Z,13.30
2022-09-23T06:56:12.679Z,11.48
2022-09-23T07:01:17.380Z,10.32
2022-09-23T07:06:21.473Z,9.64
2022-09-23T07:11:24.140Z,9.14
2022-09-23T07:16:27.063Z,8.91
2022-09-23T07:21:31.145Z,8.78
2022-09-23T07:26:34.757Z,8.73
2022-09-23T07:31:39.979Z,8.78
2022-09-23T07:36:44.232Z,8.88
2022-09-23T07:41:46.900Z,8.93
2022-09-23T07:46:50.378Z,9.03
2022-09-23T07:51:54.810Z,9.25
2022-09-23T07:56:57.709Z,9.50
2022-09-23T08:02:00.470Z,9.84
2022-09-23T08:07:06.458Z,10.26
2022-09-23T08:12:15.222Z,10.54
2022-09-23T08:17:18.683Z,10.88
2022-09-23T08:22:22.755Z,11.13
2022-09-23T08:27:25.935Z,11.35
2022-09-23T08:32:28.612Z,11.51
2022-09-23T08:37:32.642Z,11.66
2022-09-23T08:42:40.169Z,11.78
2022-09-23T08:47:48.203Z,11.80
2022-09-23T08:52:55.870Z,11.89
2022-09-23T08:58:26.264Z,12.05
2022-09-23T09:03:36.483Z,12.27
2022-09-23T09:08:41.303Z,12.47
2022-09-23T09:13:52.486Z,12.68
2022-09-23T09:18:58.907Z,12.88
2022-09-23T09:24:05.986Z,12.92
2022-09-23T09:29:33.813Z,13.06
2022-09-23T09:34:41.230Z,13.20
2022-09-23T09:39:45.310Z,13.32
2022-09-23T09:44:52.704Z,13.36
2022-09-23T09:49:59.004Z,13.49
2022-09-23T10:00:42.688Z,13.84
2022-09-23T10:05:50.445Z,14.14
2022-09-23T10:10:54.749Z,14.38
2022-09-23T10:16:00.358Z,14.62
2022-09-23T10:21:12.077Z,14.86
2022-09-23T10:26:17.385Z,15.09
2022-09-23T10:31:26.318Z,15.29
2022-09-23T10:36:30.989Z,15.46
2022-09-23T10:41:59.177Z,15.60
2022-09-23T10:47:16.474Z,15.83
2022-09-23T10:52:44.493Z,15.96
2022-09-23T10:58:05.490Z,16.21
2022-09-23T11:03:41.178Z,16.43
2022-09-23T11:09:05.867Z,16.62
2022-09-23T11:14:28.366Z,16.89
2022-09-23T11:20:03.799Z,17.14
2022-09-23T11:25:23.603Z,17.44
2022-09-23T11:30:32.979Z,17.75
2022-09-23T11:35:42.230Z,17.95
2022-09-23T11:40:54.560Z,18.15
2022-09-23T11:46:01.290Z,18.39
2022-09-23T11:51:12.850Z,18.53
2022-09-23T11:56:31.799Z,18.88
2022-09-23T12:01:45.698Z,19.01
2022-09-23T12:06:55.525Z,19.27
2022-09-23T12:12:04.618Z,19.53
2022-09-23T12:17:37.702Z,19.78
2022-09-23T12:22:55.403Z,19.99
2022-09-23T12:28:04.623Z,20.33
2022-09-23T12:33:16.438Z,20.50
2022-09-23T12:38:26.317Z,20.51
2022-09-23T12:43:31.281Z,20.63
2022-09-23T12:48:48.684Z,20.50
2022-09-23T12:54:26.042Z,20.47
2022-09-23T12:59:31.903Z,20.64
2022-09-23T13:05:01.695Z,20.74
2022-09-23T13:10:15.270Z,20.98
2022-09-23T13:15:27.693Z,21.05
2022-09-23T13:20:38.249Z,21.17
2022-09-23T13:25:43.830Z,21.58
2022-09-23T13:30:51.995Z,21.69
2022-09-23T13:35:59.716Z,21.88
2022-09-23T13:41:08.647Z,21.62
2022-09-23T13:46:16.359Z,21.70
2022-09-23T13:51:24.737Z,21.47
2022-09-23T13:56:31.121Z,21.59
2022-09-23T14:01:36.065Z,21.67
2022-09-23T14:06:42.153Z,21.62
2022-09-23T14:11:46.345Z,21.54
2022-09-23T14:16:49.981Z,21.21
2022-09-23T14:21:54.426Z,21.37
2022-09-23T14:27:01.942Z,21.30
2022-09-23T14:32:07.779Z,21.21
2022-09-23T14:37:38.327Z,21.20
2022-09-23T14:42:44.698Z,21.13
2022-09-23T14:47:50.987Z,21.06
2022-09-23T14:52:53.786Z,20.91
2022-09-23T14:58:04.707Z,20.81
2022-09-23T15:03:16.314Z,20.70
2022-09-23T15:08:22.177Z,20.71
2022-09-23T15:13:30.482Z,20.69
2022-09-23T15:18:36.226Z,20.78
2022-09-23T15:23:45.668Z,20.79
2022-09-23T15:28:51.966Z,20.92
2022-09-23T15:33:55.930Z,20.97
2022-09-23T15:39:02.923Z,20.71
2022-09-23T15:44:13.253Z,20.65
2022-09-23T15:49:24.162Z,20.54
2022-09-23T15:54:27.055Z,20.37
2022-09-23T15:59:31.642Z,20.22
2022-09-23T16:04:35.951Z,20.10
2022-09-23T16:09:38.638Z,19.81
2022-09-23T16:14:42.768Z,19.75
2022-09-23T16:19:45.520Z,19.63
2022-09-23T16:24:48.426Z,19.49
2022-09-23T16:29:52.495Z,19.18
2022-09-23T16:34:58.467Z,19.02
2022-09-23T16:40:02.088Z,18.88
2022-09-23T16:45:07.229Z,18.83
2022-09-23T16:50:10.442Z,18.70
2022-09-23T16:55:14.877Z,18.48
2022-09-23T17:00:37.069Z,18.28
2022-09-23T17:05:39.816Z,18.08
2022-09-23T17:10:43.047Z,17.97
2022-09-23T17:15:47.093Z,17.83
2022-09-23T17:20:59.200Z,17.66
2022-09-23T17:26:02.769Z,17.54
2022-09-23T17:31:08.673Z,17.36
2022-09-23T17:36:14.463Z,17.24
2022-09-23T17:41:18.028Z,17.11
2022-09-23T17:46:22.155Z,16.98
2022-09-23T17:51:25.650Z,16.85
2022-09-23T17:56:29.865Z,16.75
2022-09-23T18:01:35.513Z,16.59
2022-09-23T18:06:38.508Z,16.52
2022-09-23T18:11:43.786Z,16.48
2022-09-23T18:16:50.030Z,16.43
2022-09-23T18:21:56.502Z,16.42
2022-09-23T18:26:59.735Z,16.46
2022-09-23T18:32:04.523Z,16.47
2022-09-23T18:37:15.379Z,16.42
2022-09-23T18:42:19.449Z,16.49
2022-09-23T18:47:37.461Z,16.47
2022-09-23T18:52:40.150Z,16.46
2022-09-23T18:57:42.920Z,16.42
2022-09-23T19:02:47.019Z,16.37
2022-09-23T19:07:49.706Z,16.29
2022-09-23T19:12:52.431Z,16.27
2022-09-23T19:17:56.460Z,16.14
2022-09-23T19:22:59.539Z,15.97
2022-09-23T19:28:05.395Z,15.90
2022-09-23T19:33:10.042Z,15.63
2022-09-23T19:38:12.743Z,15.55
2022-09-23T19:43:16.898Z,15.49
2022-09-23T19:48:21.002Z,15.48
2022-09-23T19:53:28.038Z,15.44
2022-09-23T19:58:31.033Z,15.41
2022-09-23T20:03:35.181Z,15.35
2022-09-23T20:08:38.362Z,15.26
2022-09-23T20:13:42.507Z,15.13
2022-09-23T20:18:47.511Z,15.05
2022-09-23T20:23:50.224Z,15.02
2022-09-23T20:28:52.982Z,15.02
2022-09-23T20:33:58.884Z,15.04
2022-09-23T20:39:05.700Z,15.06
2022-09-23T20:44:12.429Z,15.07
2022-09-23T20:49:17.753Z,15.01
2022-09-23T20:54:20.906Z,15.07
2022-09-23T20:59:27.366Z,15.13
2022-09-23T21:04:31.546Z,15.19
2022-09-23T21:09:34.249Z,15.25
2022-09-23T21:14:36.938Z,15.31
2022-09-23T21:19:41.543Z,15.39
2022-09-23T21:25:25.906Z,15.41
2022-09-23T21:30:07.967Z,15.41
2022-09-23T21:35:12.006Z,15.42
2022-09-23T21:40:32.418Z,15.39
2022-09-23T21:45:35.120Z,15.40
2022-09-23T21:50:40.953Z,15.37
2022-09-23T21:55:43.642Z,15.33
2022-09-23T22:00:46.372Z,15.25
2022-09-23T22:06:01.570Z,15.15
2022-09-23T22:11:06.617Z,15.07
2022-09-23T22:16:09.372Z,15.02
2022-09-23T22:21:13.562Z,15.00
2022-09-23T22:26:16.302Z,14.96
2022-09-23T22:31:36.559Z,14.92
2022-09-23T22:36:40.718Z,14.88
2022-09-23T22:41:43.386Z,14.84
2022-09-23T22:46:46.610Z,14.82
2022-09-23T22:51:53.022Z,14.79
2022-09-23T22:56:55.794Z,14.86
2022-09-23T23:02:00.350Z,14.82
2022-09-23T23:07:06.917Z,14.68
2022-09-23T23:12:09.681Z,14.51
2022-09-23T23:17:12.339Z,14.43
2022-09-23T23:22:16.401Z,14.31
2022-09-23T23:27:19.226Z,14.19
2022-09-23T23:32:21.937Z,14.00
2022-09-23T23:37:26.013Z,13.97
2022-09-23T23:42:28.727Z,13.81
2022-09-23T23:47:31.986Z,13.74
2022-09-23T23:52:36.137Z,13.73
2022-09-23T23:57:39.122Z,13.74
